sensor_id;sensor_type;location;lat;lon;timestamp;pressure;altitude;pressure_sealevel;temperature;humidity
6528;BME280;64597;42.664;23.256;2023-01-26T00:00:48;95006.81;;;0.00;71.05
6528;BME280;64597;42.664;23.256;2023-01-26T00:03:14;95005.47;;;-0.04;71.32
6528;BME280;64597;42.664;23.256;2023-01-26T00:05:39;94969.34;;;-0.22;71.12
6528;BME280;64597;42.664;23.256;2023-01-26T00:08:05;94930.09;;;-0.51;71.29
6528;BME280;64597;42.664;23.256;2023-01-26T00:10:31;94997.56;;;-0.03;70.80
6528;BME280;64597;42.664;23.256;2023-01-26T00:12:56;95013.13;;;-0.03;70.54
6528;BME280;64597;42.664;23.256;2023-01-26T00:15:22;95005.63;;;-0.14;71.02
6528;BME280;64597;42.664;23.256;2023-01-26T00:17:48;95003.06;;;-0.06;70.93
6528;BME280;64597;42.664;23.256;2023-01-26T00:20:16;95011.00;;;0.01;70.52
6528;BME280;64597;42.664;23.256;2023-01-26T00:22:42;95006.22;;;-0.36;70.76
6528;BME280;64597;42.664;23.256;2023-01-26T00:25:08;95011.16;;;-0.09;70.69
6528;BME280;64597;42.664;23.256;2023-01-26T00:27:33;94998.16;;;-0.25;70.86
6528;BME280;64597;42.664;23.256;2023-01-26T00:29:59;94992.19;;;-0.09;71.01
6528;BME280;64597;42.664;23.256;2023-01-26T00:32:27;94986.38;;;-0.11;70.87
6528;BME280;64597;42.664;23.256;2023-01-26T00:34:52;94981.63;;;-0.32;70.77
6528;BME280;64597;42.664;23.256;2023-01-26T00:37:18;94976.00;;;-0.11;70.98
6528;BME280;64597;42.664;23.256;2023-01-26T00:39:43;94979.91;;;-0.07;71.21
6528;BME280;64597;42.664;23.256;2023-01-26T00:42:10;94979.91;;;-0.07;71.01
6528;BME280;64597;42.664;23.256;2023-01-26T00:44:39;94977.47;;;-0.09;70.28
6528;BME280;64597;42.664;23.256;2023-01-26T00:47:06;94978.25;;;-0.08;70.35
6528;BME280;64597;42.664;23.256;2023-01-26T00:49:32;94977.28;;;-0.15;70.32
6528;BME280;64597;42.664;23.256;2023-01-26T00:51:59;94988.59;;;-0.24;70.90
6528;BME280;64597;42.664;23.256;2023-01-26T00:54:24;94970.16;;;-0.21;70.82
6528;BME280;64597;42.664;23.256;2023-01-26T00:56:50;94968.22;;;-0.11;70.28
6528;BME280;64597;42.664;23.256;2023-01-26T00:59:15;94962.22;;;-0.12;70.21
6528;BME280;64597;42.664;23.256;2023-01-26T01:01:40;94964.00;;;-0.20;70.29
6528;BME280;64597;42.664;23.256;2023-01-26T01:04:06;94960.94;;;-0.16;71.01
6528;BME280;64597;42.664;23.256;2023-01-26T01:06:31;94953.31;;;-0.25;70.03
6528;BME280;64597;42.664;23.256;2023-01-26T01:08:57;94949.09;;;-0.26;70.11
6528;BME280;64597;42.664;23.256;2023-01-26T01:11:22;94953.97;;;-0.23;70.61
6528;BME280;64597;42.664;23.256;2023-01-26T01:13:48;94953.31;;;-0.17;70.28
6528;BME280;64597;42.664;23.256;2023-01-26T01:16:14;94952.84;;;-0.29;70.24
6528;BME280;64597;42.664;23.256;2023-01-26T01:18:41;94949.09;;;-0.26;70.50
6528;BME280;64597;42.664;23.256;2023-01-26T01:21:07;94963.66;;;-0.33;70.29
6528;BME280;64597;42.664;23.256;2023-01-26T01:23:33;94931.53;;;-0.56;70.67
6528;BME280;64597;42.664;23.256;2023-01-26T01:25:59;94937.75;;;-0.41;69.86
6528;BME280;64597;42.664;23.256;2023-01-26T01:28:25;94948.44;;;-0.28;70.60
6528;BME280;64597;42.664;23.256;2023-01-26T01:30:51;94943.25;;;-0.28;69.98
6528;BME280;64597;42.664;23.256;2023-01-26T01:33:16;94957.19;;;-0.29;70.28
6528;BME280;64597;42.664;23.256;2023-01-26T01:35:42;94934.53;;;-0.35;70.14
6528;BME280;64597;42.664;23.256;2023-01-26T01:38:07;94935.47;;;-0.36;70.25
6528;BME280;64597;42.664;23.256;2023-01-26T01:40:32;94944.91;;;-0.27;69.99
6528;BME280;64597;42.664;23.256;2023-01-26T01:42:58;94951.19;;;-0.38;69.66
6528;BME280;64597;42.664;23.256;2023-01-26T01:45:33;94944.53;;;-0.32;70.22
6528;BME280;64597;42.664;23.256;2023-01-26T01:48:01;94936.47;;;-0.29;69.92
6528;BME280;64597;42.664;23.256;2023-01-26T01:50:34;94945.19;;;-0.38;69.48
6528;BME280;64597;42.664;23.256;2023-01-26T01:53:02;94943.91;;;-0.26;69.91
6528;BME280;64597;42.664;23.256;2023-01-26T01:55:28;94925.13;;;-0.36;69.42
6528;BME280;64597;42.664;23.256;2023-01-26T01:57:55;94931.09;;;-0.44;69.84
6528;BME280;64597;42.664;23.256;2023-01-26T02:00:24;94937.75;;;-0.41;70.09
6528;BME280;64597;42.664;23.256;2023-01-26T02:06:00;94932.06;;;-0.37;70.03
6528;BME280;64597;42.664;23.256;2023-01-26T02:08:40;94923.81;;;-0.32;70.06
6528;BME280;64597;42.664;23.256;2023-01-26T02:11:16;94919.94;;;-0.36;69.30
6528;BME280;64597;42.664;23.256;2023-01-26T02:13:45;94911.53;;;-0.30;69.42
6528;BME280;64597;42.664;23.256;2023-01-26T02:16:12;94899.84;;;-0.50;69.16
6528;BME280;64597;42.664;23.256;2023-01-26T02:18:37;94903.75;;;-0.22;69.65
6528;BME280;64597;42.664;23.256;2023-01-26T02:21:05;94896.00;;;-0.22;68.53
6528;BME280;64597;42.664;23.256;2023-01-26T02:26:40;94888.56;;;-0.25;69.01
6528;BME280;64597;42.664;23.256;2023-01-26T02:29:07;94883.03;;;-0.30;68.86
6528;BME280;64597;42.664;23.256;2023-01-26T02:31:33;94879.81;;;-0.24;68.58
6528;BME280;64597;42.664;23.256;2023-01-26T02:33:59;94884.19;;;-0.25;69.11
6528;BME280;64597;42.664;23.256;2023-01-26T02:36:27;94856.00;;;-0.52;69.25
6528;BME280;64597;42.664;23.256;2023-01-26T02:41:44;94867.66;;;-0.32;69.07
6528;BME280;64597;42.664;23.256;2023-01-26T02:44:29;94866.53;;;-0.45;69.17
6528;BME280;64597;42.664;23.256;2023-01-26T02:46:56;94838.03;;;-0.53;69.51
6528;BME280;64597;42.664;23.256;2023-01-26T02:49:21;94861.00;;;-0.42;69.36
6528;BME280;64597;42.664;23.256;2023-01-26T02:52:06;94858.59;;;-0.44;69.56
6528;BME280;64597;42.664;23.256;2023-01-26T02:54:32;94849.50;;;-0.56;69.87
6528;BME280;64597;42.664;23.256;2023-01-26T02:57:30;94822.97;;;-0.66;69.70
6528;BME280;64597;42.664;23.256;2023-01-26T02:59:56;94833.16;;;-0.48;69.23
6528;BME280;64597;42.664;23.256;2023-01-26T03:02:22;94837.06;;;-0.44;69.83
6528;BME280;64597;42.664;23.256;2023-01-26T03:04:47;94828.00;;;-0.48;69.25
6528;BME280;64597;42.664;23.256;2023-01-26T03:07:12;94830.59;;;-0.40;69.62
6528;BME280;64597;42.664;23.256;2023-01-26T03:09:38;94801.78;;;-0.37;69.13
6528;BME280;64597;42.664;23.256;2023-01-26T03:12:04;94838.34;;;-0.32;69.08
6528;BME280;64597;42.664;23.256;2023-01-26T03:14:29;94824.28;;;-0.38;69.24
6528;BME280;64597;42.664;23.256;2023-01-26T03:16:55;94817.16;;;-0.44;69.14
6528;BME280;64597;42.664;23.256;2023-01-26T03:19:20;94807.63;;;-0.51;69.33
6528;BME280;64597;42.664;23.256;2023-01-26T03:22:04;94803.22;;;-0.51;69.38
6528;BME280;64597;42.664;23.256;2023-01-26T03:24:48;94819.75;;;-0.60;69.19
6528;BME280;64597;42.664;23.256;2023-01-26T03:27:41;94827.34;;;-0.58;70.09
6528;BME280;64597;42.664;23.256;2023-01-26T03:30:07;94796.91;;;-0.72;69.90
6528;BME280;64597;42.664;23.256;2023-01-26T03:32:32;94811.16;;;-0.60;69.80
6528;BME280;64597;42.664;23.256;2023-01-26T03:34:58;94784.94;;;-0.65;69.98
6528;BME280;64597;42.664;23.256;2023-01-26T03:37:23;94805.34;;;-0.54;69.87
6528;BME280;64597;42.664;23.256;2023-01-26T03:39:49;94805.03;;;-0.51;70.00
6528;BME280;64597;42.664;23.256;2023-01-26T03:42:34;94787.22;;;-0.62;70.18
6528;BME280;64597;42.664;23.256;2023-01-26T03:45:19;94816.16;;;-0.51;69.52
6528;BME280;64597;42.664;23.256;2023-01-26T03:48:08;94815.84;;;-0.64;69.57
6528;BME280;64597;42.664;23.256;2023-01-26T03:50:52;94797.72;;;-0.72;70.41
6528;BME280;64597;42.664;23.256;2023-01-26T03:53:36;94803.06;;;-0.65;69.99
6528;BME280;64597;42.664;23.256;2023-01-26T03:56:20;94783.81;;;-0.71;69.36
6528;BME280;64597;42.664;23.256;2023-01-26T03:58:53;94806.16;;;-0.70;69.94
6528;BME280;64597;42.664;23.256;2023-01-26T04:01:21;94784.94;;;-0.73;69.45
6528;BME280;64597;42.664;23.256;2023-01-26T04:03:51;94790.28;;;-0.67;69.20
6528;BME280;64597;42.664;23.256;2023-01-26T04:06:36;94803.03;;;-0.73;69.69
6528;BME280;64597;42.664;23.256;2023-01-26T04:09:21;94789.63;;;-0.77;69.86
6528;BME280;64597;42.664;23.256;2023-01-26T04:11:47;94792.03;;;-0.75;69.79
6528;BME280;64597;42.664;23.256;2023-01-26T04:14:14;94761.31;;;-0.87;69.25
6528;BME280;64597;42.664;23.256;2023-01-26T04:16:59;94770.22;;;-0.81;69.85
6528;BME280;64597;42.664;23.256;2023-01-26T04:19:43;94760.69;;;-0.72;69.60
6528;BME280;64597;42.664;23.256;2023-01-26T04:22:27;94749.03;;;-0.68;69.11
6528;BME280;64597;42.664;23.256;2023-01-26T04:24:53;94713.09;;;-1.04;69.65
6528;BME280;64597;42.664;23.256;2023-01-26T04:27:19;94746.09;;;-0.90;69.38
6528;BME280;64597;42.664;23.256;2023-01-26T04:29:44;94734.31;;;-0.84;69.80
6528;BME280;64597;42.664;23.256;2023-01-26T04:32:10;94716.19;;;-0.76;69.50
6528;BME280;64597;42.664;23.256;2023-01-26T04:34:35;94743.84;;;-0.76;69.75
6528;BME280;64597;42.664;23.256;2023-01-26T04:37:01;94752.56;;;-0.77;69.60
6528;BME280;64597;42.664;23.256;2023-01-26T04:39:26;94718.44;;;-0.97;69.14
6528;BME280;64597;42.664;23.256;2023-01-26T04:41:51;94746.75;;;-0.71;69.10
6528;BME280;64597;42.664;23.256;2023-01-26T04:44:17;94762.13;;;-0.70;68.50
6528;BME280;64597;42.664;23.256;2023-01-26T04:46:42;94742.72;;;-0.90;68.56
6528;BME280;64597;42.664;23.256;2023-01-26T04:49:08;94763.25;;;-0.72;68.84
6528;BME280;64597;42.664;23.256;2023-01-26T04:51:34;94777.84;;;-0.63;68.08
6528;BME280;64597;42.664;23.256;2023-01-26T04:53:59;94768.09;;;-0.69;68.46
6528;BME280;64597;42.664;23.256;2023-01-26T04:56:28;94769.25;;;-0.64;68.80
6528;BME280;64597;42.664;23.256;2023-01-26T04:58:54;94761.63;;;-0.73;68.11
6528;BME280;64597;42.664;23.256;2023-01-26T05:01:22;94759.84;;;-0.81;68.01
6528;BME280;64597;42.664;23.256;2023-01-26T05:03:47;94761.97;;;-0.76;68.06
6528;BME280;64597;42.664;23.256;2023-01-26T05:06:13;94763.56;;;-0.67;68.26
6528;BME280;64597;42.664;23.256;2023-01-26T05:08:39;94762.97;;;-0.61;68.35
6528;BME280;64597;42.664;23.256;2023-01-26T05:11:04;94756.16;;;-0.54;67.88
6528;BME280;64597;42.664;23.256;2023-01-26T05:13:30;94761.31;;;-0.54;67.22
6528;BME280;64597;42.664;23.256;2023-01-26T05:15:55;94764.09;;;-0.48;67.59
6528;BME280;64597;42.664;23.256;2023-01-26T05:18:21;94754.38;;;-0.46;67.45
6528;BME280;64597;42.664;23.256;2023-01-26T05:20:46;94760.03;;;-0.50;67.19
6528;BME280;64597;42.664;23.256;2023-01-26T05:23:12;94755.97;;;-0.53;67.67
6528;BME280;64597;42.664;23.256;2023-01-26T05:25:37;94750.81;;;-0.61;67.63
6528;BME280;64597;42.664;23.256;2023-01-26T05:28:04;94721.38;;;-0.68;67.91
6528;BME280;64597;42.664;23.256;2023-01-26T05:30:30;94754.69;;;-0.57;67.94
6528;BME280;64597;42.664;23.256;2023-01-26T05:33:06;94742.91;;;-0.51;67.33
6528;BME280;64597;42.664;23.256;2023-01-26T05:35:32;94742.38;;;-0.47;67.23
6528;BME280;64597;42.664;23.256;2023-01-26T05:37:58;94743.84;;;-0.44;68.05
6528;BME280;64597;42.664;23.256;2023-01-26T05:40:23;94741.91;;;-0.42;67.85
6528;BME280;64597;42.664;23.256;2023-01-26T05:42:50;94743.66;;;-0.35;67.79
6528;BME280;64597;42.664;23.256;2023-01-26T05:45:16;94705.19;;;-0.62;67.02
6528;BME280;64597;42.664;23.256;2023-01-26T05:47:43;94742.88;;;-0.43;67.18
6528;BME280;64597;42.664;23.256;2023-01-26T05:50:09;94744.19;;;-0.39;67.10
6528;BME280;64597;42.664;23.256;2023-01-26T05:52:35;94749.50;;;-0.41;67.71
6528;BME280;64597;42.664;23.256;2023-01-26T05:55:01;94745.13;;;-0.24;67.61
6528;BME280;64597;42.664;23.256;2023-01-26T05:57:27;94735.59;;;-0.40;67.14
6528;BME280;64597;42.664;23.256;2023-01-26T05:59:52;94739.66;;;-0.45;67.55
6528;BME280;64597;42.664;23.256;2023-01-26T06:02:17;94746.91;;;-0.49;67.84
6528;BME280;64597;42.664;23.256;2023-01-26T06:04:43;94739.97;;;-0.56;67.80
6528;BME280;64597;42.664;23.256;2023-01-26T06:07:09;94739.00;;;-0.55;67.94
6528;BME280;64597;42.664;23.256;2023-01-26T06:09:38;94711.66;;;-0.58;67.72
6528;BME280;64597;42.664;23.256;2023-01-26T06:12:03;94706.63;;;-0.67;67.31
6528;BME280;64597;42.664;23.256;2023-01-26T06:14:29;94727.34;;;-0.51;68.07
6528;BME280;64597;42.664;23.256;2023-01-26T06:16:55;94731.06;;;-0.46;68.07
6528;BME280;64597;42.664;23.256;2023-01-26T06:19:21;94735.75;;;-0.41;67.70
6528;BME280;64597;42.664;23.256;2023-01-26T06:21:46;94722.16;;;-0.35;67.03
6528;BME280;64597;42.664;23.256;2023-01-26T06:24:12;94729.59;;;-0.40;67.26
6528;BME280;64597;42.664;23.256;2023-01-26T06:26:37;94727.19;;;0.60;86.73
6528;BME280;64597;42.664;23.256;2023-01-26T06:29:03;94728.84;;;0.53;71.03
6528;BME280;64597;42.664;23.256;2023-01-26T06:31:29;94717.09;;;0.34;68.65
6528;BME280;64597;42.664;23.256;2023-01-26T06:33:54;94719.75;;;0.18;68.32
6528;BME280;64597;42.664;23.256;2023-01-26T06:36:21;94709.56;;;0.09;67.76
6528;BME280;64597;42.664;23.256;2023-01-26T06:38:52;94679.66;;;-0.10;67.47
6528;BME280;64597;42.664;23.256;2023-01-26T06:41:17;94707.19;;;-0.01;67.63
6528;BME280;64597;42.664;23.256;2023-01-26T06:43:45;94634.75;;;-0.33;67.59
6528;BME280;64597;42.664;23.256;2023-01-26T06:46:11;94710.75;;;0.06;67.11
6528;BME280;64597;42.664;23.256;2023-01-26T06:48:37;94708.94;;;0.07;67.73
6528;BME280;64597;42.664;23.256;2023-01-26T06:54:04;94702.78;;;0.08;66.87
6528;BME280;64597;42.664;23.256;2023-01-26T06:56:29;94682.91;;;0.00;67.21
6528;BME280;64597;42.664;23.256;2023-01-26T06:58:57;94688.69;;;0.10;67.17
6528;BME280;64597;42.664;23.256;2023-01-26T07:01:25;94690.28;;;0.11;66.77
6528;BME280;64597;42.664;23.256;2023-01-26T07:03:52;94693.22;;;0.08;67.20
6528;BME280;64597;42.664;23.256;2023-01-26T07:06:18;94690.31;;;0.03;67.54
6528;BME280;64597;42.664;23.256;2023-01-26T07:08:44;94682.69;;;0.10;67.17
6528;BME280;64597;42.664;23.256;2023-01-26T07:11:10;94685.75;;;0.13;67.49
6528;BME280;64597;42.664;23.256;2023-01-26T07:13:36;94682.00;;;0.24;67.28
6528;BME280;64597;42.664;23.256;2023-01-26T07:16:04;94690.06;;;0.29;67.03
6528;BME280;64597;42.664;23.256;2023-01-26T07:18:29;94670.16;;;0.21;67.07
6528;BME280;64597;42.664;23.256;2023-01-26T07:21:00;94681.16;;;0.23;67.04
6528;BME280;64597;42.664;23.256;2023-01-26T07:23:25;94674.66;;;0.27;67.16
6528;BME280;64597;42.664;23.256;2023-01-26T07:25:51;94669.75;;;0.40;67.25
6528;BME280;64597;42.664;23.256;2023-01-26T07:28:16;94667.75;;;0.50;66.53
6528;BME280;64597;42.664;23.256;2023-01-26T07:30:42;94661.75;;;0.50;66.48
6528;BME280;64597;42.664;23.256;2023-01-26T07:33:07;94670.81;;;0.54;65.79
6528;BME280;64597;42.664;23.256;2023-01-26T07:35:32;94666.09;;;0.57;65.81
6528;BME280;64597;42.664;23.256;2023-01-26T07:37:58;94658.66;;;0.54;65.95
6528;BME280;64597;42.664;23.256;2023-01-26T07:40:23;94659.56;;;0.61;65.92
6528;BME280;64597;42.664;23.256;2023-01-26T07:42:49;94642.97;;;0.48;65.65
6528;BME280;64597;42.664;23.256;2023-01-26T07:45:15;94655.88;;;0.56;66.20
6528;BME280;64597;42.664;23.256;2023-01-26T07:47:42;94648.41;;;0.61;65.64
6528;BME280;64597;42.664;23.256;2023-01-26T07:50:09;94653.38;;;0.70;66.38
6528;BME280;64597;42.664;23.256;2023-01-26T07:52:35;94650.72;;;0.78;65.42
6528;BME280;64597;42.664;23.256;2023-01-26T07:55:03;94664.38;;;0.72;64.87
6528;BME280;64597;42.664;23.256;2023-01-26T07:57:28;94650.53;;;0.57;64.94
6528;BME280;64597;42.664;23.256;2023-01-26T07:59:54;94642.28;;;0.54;65.43
6528;BME280;64597;42.664;23.256;2023-01-26T08:02:19;94652.56;;;0.70;65.26
6528;BME280;64597;42.664;23.256;2023-01-26T08:04:45;94656.47;;;0.89;65.07
6528;BME280;64597;42.664;23.256;2023-01-26T08:07:11;94649.31;;;0.91;64.50
6528;BME280;64597;42.664;23.256;2023-01-26T08:09:36;94646.56;;;0.92;64.48
6528;BME280;64597;42.664;23.256;2023-01-26T08:12:02;94665.84;;;0.98;64.96
6528;BME280;64597;42.664;23.256;2023-01-26T08:14:27;94652.16;;;1.04;64.81
6528;BME280;64597;42.664;23.256;2023-01-26T08:16:52;94649.56;;;1.04;64.57
6528;BME280;64597;42.664;23.256;2023-01-26T08:19:18;94643.22;;;1.06;64.17
6528;BME280;64597;42.664;23.256;2023-01-26T08:21:43;94639.19;;;1.04;64.44
6528;BME280;64597;42.664;23.256;2023-01-26T08:24:10;94641.59;;;1.05;64.49
6528;BME280;64597;42.664;23.256;2023-01-26T08:26:36;94618.75;;;1.01;64.25
6528;BME280;64597;42.664;23.256;2023-01-26T08:29:02;94633.84;;;1.20;63.95
6528;BME280;64597;42.664;23.256;2023-01-26T08:31:27;94638.69;;;1.23;64.19
6528;BME280;64597;42.664;23.256;2023-01-26T08:33:54;94630.91;;;1.23;63.91
6528;BME280;64597;42.664;23.256;2023-01-26T08:36:21;94626.88;;;1.20;63.46
6528;BME280;64597;42.664;23.256;2023-01-26T08:38:46;94607.44;;;1.16;64.28
6528;BME280;64597;42.664;23.256;2023-01-26T08:41:12;94620.00;;;1.27;63.83
6528;BME280;64597;42.664;23.256;2023-01-26T08:43:38;94617.75;;;1.24;63.75
6528;BME280;64597;42.664;23.256;2023-01-26T08:46:04;94630.47;;;1.34;63.28
6528;BME280;64597;42.664;23.256;2023-01-26T08:48:29;94602.78;;;1.12;64.35
6528;BME280;64597;42.664;23.256;2023-01-26T08:50:59;94631.63;;;1.31;63.61
6528;BME280;64597;42.664;23.256;2023-01-26T08:53:28;94644.34;;;1.26;63.17
6528;BME280;64597;42.664;23.256;2023-01-26T08:55:54;94635.75;;;1.26;63.58
6528;BME280;64597;42.664;23.256;2023-01-26T08:58:19;94632.16;;;1.27;63.44
6528;BME280;64597;42.664;23.256;2023-01-26T09:00:45;94629.22;;;1.30;63.00
6528;BME280;64597;42.664;23.256;2023-01-26T09:03:11;94622.53;;;1.50;63.18
6528;BME280;64597;42.664;23.256;2023-01-26T09:05:38;94604.50;;;1.34;62.95
6528;BME280;64597;42.664;23.256;2023-01-26T09:08:04;94603.69;;;1.33;62.46
6528;BME280;64597;42.664;23.256;2023-01-26T09:10:31;94629.44;;;1.43;62.33
6528;BME280;64597;42.664;23.256;2023-01-26T09:12:57;94633.19;;;1.40;63.11
6528;BME280;64597;42.664;23.256;2023-01-26T09:15:23;94639.19;;;1.41;62.23
6528;BME280;64597;42.664;23.256;2023-01-26T09:17:49;94628.81;;;1.41;62.37
6528;BME280;64597;42.664;23.256;2023-01-26T09:20:15;94591.59;;;1.26;62.83
6528;BME280;64597;42.664;23.256;2023-01-26T09:22:42;94607.84;;;1.42;62.91
6528;BME280;64597;42.664;23.256;2023-01-26T09:25:08;94616.72;;;1.48;62.42
6528;BME280;64597;42.664;23.256;2023-01-26T09:27:34;94589.66;;;1.42;62.61
6528;BME280;64597;42.664;23.256;2023-01-26T09:30:01;94597.28;;;1.44;61.99
6528;BME280;64597;42.664;23.256;2023-01-26T09:32:27;94578.72;;;1.32;62.67
6528;BME280;64597;42.664;23.256;2023-01-26T09:34:52;94590.09;;;1.31;62.34
6528;BME280;64597;42.664;23.256;2023-01-26T09:37:18;94573.63;;;1.53;63.00
6528;BME280;64597;42.664;23.256;2023-01-26T09:39:43;94571.09;;;1.45;62.16
6528;BME280;64597;42.664;23.256;2023-01-26T09:44:57;94594.31;;;1.47;62.34
6528;BME280;64597;42.664;23.256;2023-01-26T09:47:41;94589.94;;;1.62;62.96
6528;BME280;64597;42.664;23.256;2023-01-26T09:50:17;94574.81;;;1.51;62.97
6528;BME280;64597;42.664;23.256;2023-01-26T09:53:06;94569.00;;;1.63;62.69
6528;BME280;64597;42.664;23.256;2023-01-26T09:55:35;94567.91;;;1.58;62.74
6528;BME280;64597;42.664;23.256;2023-01-26T09:58:04;94563.31;;;1.60;63.07
6528;BME280;64597;42.664;23.256;2023-01-26T10:00:42;94568.81;;;1.65;62.45
6528;BME280;64597;42.664;23.256;2023-01-26T10:03:27;94574.72;;;1.74;62.51
6528;BME280;64597;42.664;23.256;2023-01-26T10:08:26;94562.78;;;1.50;62.74
6528;BME280;64597;42.664;23.256;2023-01-26T10:13:20;94562.25;;;1.69;62.63
6528;BME280;64597;42.664;23.256;2023-01-26T10:15:52;94544.78;;;1.63;62.15
6528;BME280;64597;42.664;23.256;2023-01-26T10:18:23;94536.91;;;1.42;62.41
6528;BME280;64597;42.664;23.256;2023-01-26T10:20:53;94543.53;;;1.59;62.64
6528;BME280;64597;42.664;23.256;2023-01-26T10:23:26;94528.06;;;1.51;62.39
6528;BME280;64597;42.664;23.256;2023-01-26T10:25:53;94524.44;;;1.52;62.76
6528;BME280;64597;42.664;23.256;2023-01-26T10:28:27;94522.38;;;1.62;62.51
6528;BME280;64597;42.664;23.256;2023-01-26T10:30:53;94504.09;;;1.55;62.30
6528;BME280;64597;42.664;23.256;2023-01-26T10:33:26;94497.50;;;1.67;62.60
6528;BME280;64597;42.664;23.256;2023-01-26T10:35:54;94492.00;;;1.77;62.11
6528;BME280;64597;42.664;23.256;2023-01-26T10:41:06;94473.69;;;1.85;61.89
6528;BME280;64597;42.664;23.256;2023-01-26T10:43:59;94461.25;;;1.81;62.02
6528;BME280;64597;42.664;23.256;2023-01-26T10:46:36;94454.25;;;1.81;61.55
6528;BME280;64597;42.664;23.256;2023-01-26T10:51:36;94438.75;;;1.88;61.70
6528;BME280;64597;42.664;23.256;2023-01-26T10:56:44;94442.13;;;1.88;61.70
6528;BME280;64597;42.664;23.256;2023-01-26T10:59:21;94421.72;;;1.85;61.49
6528;BME280;64597;42.664;23.256;2023-01-26T11:01:56;94411.94;;;1.87;61.60
6528;BME280;64597;42.664;23.256;2023-01-26T11:04:22;94405.75;;;1.88;60.73
6528;BME280;64597;42.664;23.256;2023-01-26T11:06:47;94405.81;;;1.95;60.64
6528;BME280;64597;42.664;23.256;2023-01-26T11:11:39;94365.78;;;1.89;61.43
6528;BME280;64597;42.664;23.256;2023-01-26T11:14:14;94410.03;;;1.96;61.09
6528;BME280;64597;42.664;23.256;2023-01-26T11:16:46;94396.34;;;2.08;61.32
6528;BME280;64597;42.664;23.256;2023-01-26T11:19:53;94392.81;;;2.16;60.91
6528;BME280;64597;42.664;23.256;2023-01-26T11:22:31;94374.19;;;1.91;61.15
6528;BME280;64597;42.664;23.256;2023-01-26T11:25:08;94390.28;;;2.01;61.17
6528;BME280;64597;42.664;23.256;2023-01-26T11:30:35;94374.53;;;2.09;61.39
6528;BME280;64597;42.664;23.256;2023-01-26T11:36:08;94368.41;;;2.17;61.08
6528;BME280;64597;42.664;23.256;2023-01-26T11:38:51;94359.22;;;2.14;61.31
6528;BME280;64597;42.664;23.256;2023-01-26T11:47:03;94345.72;;;2.04;61.15
6528;BME280;64597;42.664;23.256;2023-01-26T11:52:45;94359.44;;;2.19;61.47
6528;BME280;64597;42.664;23.256;2023-01-26T11:55:27;94358.81;;;2.17;61.44
6528;BME280;64597;42.664;23.256;2023-01-26T12:00:47;94364.88;;;2.24;61.95
6528;BME280;64597;42.664;23.256;2023-01-26T12:06:01;94334.44;;;2.18;61.88
6528;BME280;64597;42.664;23.256;2023-01-26T12:11:19;94325.91;;;2.03;62.19
6528;BME280;64597;42.664;23.256;2023-01-26T12:16:39;94319.13;;;2.09;62.29
6528;BME280;64597;42.664;23.256;2023-01-26T12:21:55;94298.06;;;1.97;62.43
6528;BME280;64597;42.664;23.256;2023-01-26T12:24:42;94274.25;;;1.94;62.51
6528;BME280;64597;42.664;23.256;2023-01-26T12:27:21;94275.53;;;2.04;62.81
6528;BME280;64597;42.664;23.256;2023-01-26T12:32:32;94271.09;;;1.98;62.93
6528;BME280;64597;42.664;23.256;2023-01-26T12:34:57;94262.91;;;2.01;63.09
6528;BME280;64597;42.664;23.256;2023-01-26T12:45:38;94286.69;;;1.98;63.43
6528;BME280;64597;42.664;23.256;2023-01-26T12:48:29;94267.50;;;1.99;63.30
6528;BME280;64597;42.664;23.256;2023-01-26T12:51:04;94253.13;;;2.03;63.07
6528;BME280;64597;42.664;23.256;2023-01-26T12:56:34;94263.03;;;1.93;63.86
6528;BME280;64597;42.664;23.256;2023-01-26T12:59:27;94254.88;;;1.96;63.99
6528;BME280;64597;42.664;23.256;2023-01-26T13:01:54;94244.66;;;1.95;64.09
6528;BME280;64597;42.664;23.256;2023-01-26T13:04:20;94245.34;;;1.82;64.55
6528;BME280;64597;42.664;23.256;2023-01-26T13:07:00;94261.41;;;1.86;64.77
6528;BME280;64597;42.664;23.256;2023-01-26T13:09:26;94232.97;;;1.78;64.27
6528;BME280;64597;42.664;23.256;2023-01-26T13:11:58;94254.84;;;1.90;64.62
6528;BME280;64597;42.664;23.256;2023-01-26T13:14:59;94261.72;;;2.04;64.59
6528;BME280;64597;42.664;23.256;2023-01-26T13:19:53;94247.56;;;2.06;64.66
6528;BME280;64597;42.664;23.256;2023-01-26T13:35:16;94242.25;;;2.27;63.86
6528;BME280;64597;42.664;23.256;2023-01-26T13:37:52;94239.06;;;2.25;64.05
6528;BME280;64597;42.664;23.256;2023-01-26T13:40:35;94250.00;;;2.14;64.25
6528;BME280;64597;42.664;23.256;2023-01-26T13:48:49;94186.81;;;1.86;64.24
6528;BME280;64597;42.664;23.256;2023-01-26T13:51:27;94230.03;;;2.21;64.76
6528;BME280;64597;42.664;23.256;2023-01-26T13:54:10;94226.41;;;2.16;64.43
6528;BME280;64597;42.664;23.256;2023-01-26T13:57:01;94223.19;;;2.14;64.62
6528;BME280;64597;42.664;23.256;2023-01-26T13:59:31;94213.72;;;2.00;64.55
6528;BME280;64597;42.664;23.256;2023-01-26T14:01:57;94212.28;;;1.97;64.90
6528;BME280;64597;42.664;23.256;2023-01-26T14:04:28;94216.06;;;1.95;64.50
6528;BME280;64597;42.664;23.256;2023-01-26T14:07:07;94198.28;;;1.92;64.71
6528;BME280;64597;42.664;23.256;2023-01-26T14:09:45;94217.03;;;1.87;65.02
6528;BME280;64597;42.664;23.256;2023-01-26T14:12:32;94217.13;;;2.00;64.67
6528;BME280;64597;42.664;23.256;2023-01-26T14:15:03;94208.47;;;1.93;64.50
6528;BME280;64597;42.664;23.256;2023-01-26T14:17:32;94208.09;;;1.96;64.77
6528;BME280;64597;42.664;23.256;2023-01-26T14:20:05;94221.50;;;2.00;64.20
6528;BME280;64597;42.664;23.256;2023-01-26T14:22:41;94207.50;;;1.94;64.04
6528;BME280;64597;42.664;23.256;2023-01-26T14:25:09;94215.91;;;1.96;64.11
6528;BME280;64597;42.664;23.256;2023-01-26T14:27:40;94212.34;;;2.04;63.74
6528;BME280;64597;42.664;23.256;2023-01-26T14:30:25;94211.00;;;2.14;63.93
6528;BME280;64597;42.664;23.256;2023-01-26T14:35:26;94192.06;;;2.27;63.62
6528;BME280;64597;42.664;23.256;2023-01-26T14:38:16;94184.88;;;2.29;63.30
6528;BME280;64597;42.664;23.256;2023-01-26T14:40:44;94189.31;;;2.35;63.10
6528;BME280;64597;42.664;23.256;2023-01-26T14:43:12;94190.09;;;2.35;63.29
6528;BME280;64597;42.664;23.256;2023-01-26T14:45:39;94174.47;;;2.35;62.72
6528;BME280;64597;42.664;23.256;2023-01-26T14:48:12;94178.28;;;2.39;62.91
6528;BME280;64597;42.664;23.256;2023-01-26T14:50:39;94177.31;;;2.40;62.96
6528;BME280;64597;42.664;23.256;2023-01-26T14:53:16;94175.31;;;2.42;62.97